sensor_id;sensor_type;location;lat;lon;timestamp;temperature;humidity
9881;DHT22;4979;51.014;6.678;2022-10-18T00:00:57;16.00;99.90
9881;DHT22;4979;51.014;6.678;2022-10-18T00:03:23;16.00;99.90
9881;DHT22;4979;51.014;6.678;2022-10-18T00:05:49;15.90;99.90
9881;DHT22;4979;51.014;6.678;2022-10-18T00:08:15;15.90;99.90
9881;DHT22;4979;51.014;6.678;2022-10-18T00:10:41;15.90;99.90
9881;DHT22;4979;51.014;6.678;2022-10-18T00:13:07;15.80;99.90
9881;DHT22;4979;51.014;6.678;2022-10-18T00:15:33;15.80;99.90
9881;DHT22;4979;51.014;6.678;2022-10-18T00:17:59;15.90;99.90
9881;DHT22;4979;51.014;6.678;2022-10-18T00:20:25;15.80;99.90
9881;DHT22;4979;51.014;6.678;2022-10-18T00:22:50;15.80;99.90
9881;DHT22;4979;51.014;6.678;2022-10-18T00:25:16;15.80;99.90
9881;DHT22;4979;51.014;6.678;2022-10-18T00:27:42;15.80;99.90
9881;DHT22;4979;51.014;6.678;2022-10-18T00:30:08;15.80;99.90
9881;DHT22;4979;51.014;6.678;2022-10-18T00:32:40;15.90;99.90
9881;DHT22;4979;51.014;6.678;2022-10-18T00:35:07;15.80;99.90
9881;DHT22;4979;51.014;6.678;2022-10-18T00:37:34;15.80;99.90
9881;DHT22;4979;51.014;6.678;2022-10-18T00:40:00;15.90;99.90
9881;DHT22;4979;51.014;6.678;2022-10-18T00:42:34;15.90;99.90
9881;DHT22;4979;51.014;6.678;2022-10-18T00:45:19;15.90;99.90
9881;DHT22;4979;51.014;6.678;2022-10-18T00:47:54;15.90;99.90
9881;DHT22;4979;51.014;6.678;2022-10-18T00:50:21;15.90;99.90
9881;DHT22;4979;51.014;6.678;2022-10-18T00:52:55;15.90;99.90
9881;DHT22;4979;51.014;6.678;2022-10-18T00:55:23;15.80;99.90
9881;DHT22;4979;51.014;6.678;2022-10-18T00:57:50;15.90;99.90
9881;DHT22;4979;51.014;6.678;2022-10-18T01:00:16;15.90;99.90
9881;DHT22;4979;51.014;6.678;2022-10-18T01:02:44;15.80;99.90
9881;DHT22;4979;51.014;6.678;2022-10-18T01:05:11;15.80;99.90
9881;DHT22;4979;51.014;6.678;2022-10-18T01:07:58;15.90;99.90
9881;DHT22;4979;51.014;6.678;2022-10-18T01:13:29;15.90;99.90
9881;DHT22;4979;51.014;6.678;2022-10-18T01:16:11;15.80;99.90
9881;DHT22;4979;51.014;6.678;2022-10-18T01:19:15;15.90;99.90
9881;DHT22;4979;51.014;6.678;2022-10-18T01:21:40;15.90;99.90
9881;DHT22;4979;51.014;6.678;2022-10-18T01:24:23;15.90;99.90
9881;DHT22;4979;51.014;6.678;2022-10-18T01:27:21;16.00;99.90
9881;DHT22;4979;51.014;6.678;2022-10-18T01:32:53;15.90;99.90
9881;DHT22;4979;51.014;6.678;2022-10-18T01:35:26;15.90;99.90
9881;DHT22;4979;51.014;6.678;2022-10-18T01:37:55;15.90;99.90
9881;DHT22;4979;51.014;6.678;2022-10-18T01:40:24;15.90;99.90
9881;DHT22;4979;51.014;6.678;2022-10-18T01:42:50;15.90;99.90
9881;DHT22;4979;51.014;6.678;2022-10-18T01:45:16;15.90;99.90
9881;DHT22;4979;51.014;6.678;2022-10-18T01:47:44;15.90;99.90
9881;DHT22;4979;51.014;6.678;2022-10-18T01:50:11;15.90;99.90
9881;DHT22;4979;51.014;6.678;2022-10-18T01:52:47;15.80;99.90
9881;DHT22;4979;51.014;6.678;2022-10-18T01:55:14;15.90;99.90
9881;DHT22;4979;51.014;6.678;2022-10-18T01:57:45;15.90;99.90
9881;DHT22;4979;51.014;6.678;2022-10-18T02:00:21;15.80;99.90
9881;DHT22;4979;51.014;6.678;2022-10-18T02:02:53;15.80;99.90
9881;DHT22;4979;51.014;6.678;2022-10-18T02:05:32;15.80;99.90
9881;DHT22;4979;51.014;6.678;2022-10-18T02:08:15;15.80;99.90
9881;DHT22;4979;51.014;6.678;2022-10-18T02:10:48;15.80;99.90
9881;DHT22;4979;51.014;6.678;2022-10-18T02:13:18;15.90;99.90
9881;DHT22;4979;51.014;6.678;2022-10-18T02:15:47;15.90;99.90
9881;DHT22;4979;51.014;6.678;2022-10-18T02:18:26;15.90;99.90
9881;DHT22;4979;51.014;6.678;2022-10-18T02:20:53;15.80;99.90
9881;DHT22;4979;51.014;6.678;2022-10-18T02:23:22;15.80;99.90
9881;DHT22;4979;51.014;6.678;2022-10-18T02:25:49;15.80;99.90
9881;DHT22;4979;51.014;6.678;2022-10-18T02:28:15;15.90;99.90
9881;DHT22;4979;51.014;6.678;2022-10-18T02:30:51;15.90;99.90
9881;DHT22;4979;51.014;6.678;2022-10-18T02:33:34;15.80;99.90
9881;DHT22;4979;51.014;6.678;2022-10-18T02:36:09;15.90;99.90
9881;DHT22;4979;51.014;6.678;2022-10-18T02:38:38;15.80;99.90
9881;DHT22;4979;51.014;6.678;2022-10-18T02:41:05;15.80;99.90
9881;DHT22;4979;51.014;6.678;2022-10-18T02:43:30;15.70;99.90
9881;DHT22;4979;51.014;6.678;2022-10-18T02:45:56;15.70;99.90
9881;DHT22;4979;51.014;6.678;2022-10-18T02:48:22;15.80;99.90
9881;DHT22;4979;51.014;6.678;2022-10-18T02:50:47;15.70;99.90
9881;DHT22;4979;51.014;6.678;2022-10-18T02:53:13;15.80;99.90
9881;DHT22;4979;51.014;6.678;2022-10-18T02:55:38;15.90;99.90
9881;DHT22;4979;51.014;6.678;2022-10-18T02:58:04;15.90;99.90
9881;DHT22;4979;51.014;6.678;2022-10-18T03:00:29;15.80;99.90
9881;DHT22;4979;51.014;6.678;2022-10-18T03:02:55;15.80;99.90
9881;DHT22;4979;51.014;6.678;2022-10-18T03:05:20;15.80;99.90
9881;DHT22;4979;51.014;6.678;2022-10-18T03:07:46;15.70;99.90
9881;DHT22;4979;51.014;6.678;2022-10-18T03:10:11;15.70;99.90
9881;DHT22;4979;51.014;6.678;2022-10-18T03:12:37;15.70;99.90
9881;DHT22;4979;51.014;6.678;2022-10-18T03:15:03;15.80;99.90
9881;DHT22;4979;51.014;6.678;2022-10-18T03:17:28;15.70;99.90
9881;DHT22;4979;51.014;6.678;2022-10-18T03:19:54;15.80;99.90
9881;DHT22;4979;51.014;6.678;2022-10-18T03:22:19;15.90;99.90
9881;DHT22;4979;51.014;6.678;2022-10-18T03:24:45;15.80;99.90
9881;DHT22;4979;51.014;6.678;2022-10-18T03:27:11;15.70;99.90
9881;DHT22;4979;51.014;6.678;2022-10-18T03:29:36;15.80;99.90
9881;DHT22;4979;51.014;6.678;2022-10-18T03:32:02;15.80;99.90
9881;DHT22;4979;51.014;6.678;2022-10-18T03:34:27;15.80;99.90
9881;DHT22;4979;51.014;6.678;2022-10-18T03:36:53;15.70;99.90
9881;DHT22;4979;51.014;6.678;2022-10-18T03:39:19;15.80;99.90
9881;DHT22;4979;51.014;6.678;2022-10-18T03:41:44;15.70;99.90
9881;DHT22;4979;51.014;6.678;2022-10-18T03:44:10;15.80;99.90
9881;DHT22;4979;51.014;6.678;2022-10-18T03:46:36;15.80;99.90
9881;DHT22;4979;51.014;6.678;2022-10-18T03:49:02;15.80;99.90
9881;DHT22;4979;51.014;6.678;2022-10-18T03:51:27;15.80;99.90
9881;DHT22;4979;51.014;6.678;2022-10-18T03:53:53;15.80;99.90
9881;DHT22;4979;51.014;6.678;2022-10-18T03:56:18;15.80;99.90
9881;DHT22;4979;51.014;6.678;2022-10-18T03:58:44;15.70;99.90
9881;DHT22;4979;51.014;6.678;2022-10-18T04:01:09;15.80;99.90
9881;DHT22;4979;51.014;6.678;2022-10-18T04:03:35;15.70;99.90
9881;DHT22;4979;51.014;6.678;2022-10-18T04:06:00;15.70;99.90
9881;DHT22;4979;51.014;6.678;2022-10-18T04:08:28;15.80;99.90
9881;DHT22;4979;51.014;6.678;2022-10-18T04:10:53;15.70;99.90
9881;DHT22;4979;51.014;6.678;2022-10-18T04:13:19;15.70;99.90
9881;DHT22;4979;51.014;6.678;2022-10-18T04:15:45;15.80;99.90
9881;DHT22;4979;51.014;6.678;2022-10-18T04:18:10;15.80;99.90
9881;DHT22;4979;51.014;6.678;2022-10-18T04:20:36;15.70;99.90
9881;DHT22;4979;51.014;6.678;2022-10-18T04:23:01;15.80;99.90
9881;DHT22;4979;51.014;6.678;2022-10-18T04:25:27;15.80;99.90
9881;DHT22;4979;51.014;6.678;2022-10-18T04:27:53;15.80;99.90
9881;DHT22;4979;51.014;6.678;2022-10-18T04:30:19;15.70;99.90
9881;DHT22;4979;51.014;6.678;2022-10-18T04:32:45;15.70;99.90
9881;DHT22;4979;51.014;6.678;2022-10-18T04:35:10;15.70;99.90
9881;DHT22;4979;51.014;6.678;2022-10-18T04:37:36;15.70;99.90
9881;DHT22;4979;51.014;6.678;2022-10-18T04:40:02;15.70;99.90
9881;DHT22;4979;51.014;6.678;2022-10-18T04:42:28;15.80;99.90
9881;DHT22;4979;51.014;6.678;2022-10-18T04:44:54;15.70;99.90
9881;DHT22;4979;51.014;6.678;2022-10-18T04:47:19;15.60;99.90
9881;DHT22;4979;51.014;6.678;2022-10-18T04:49:45;15.70;99.90
9881;DHT22;4979;51.014;6.678;2022-10-18T04:52:10;15.70;99.90
9881;DHT22;4979;51.014;6.678;2022-10-18T04:54:36;15.80;99.90
9881;DHT22;4979;51.014;6.678;2022-10-18T04:57:02;15.70;99.90
9881;DHT22;4979;51.014;6.678;2022-10-18T04:59:28;15.80;99.90
9881;DHT22;4979;51.014;6.678;2022-10-18T05:01:53;15.80;99.90
9881;DHT22;4979;51.014;6.678;2022-10-18T05:04:19;15.70;99.90
9881;DHT22;4979;51.014;6.678;2022-10-18T05:06:45;15.70;99.90
9881;DHT22;4979;51.014;6.678;2022-10-18T05:09:11;15.70;99.90
9881;DHT22;4979;51.014;6.678;2022-10-18T05:11:37;15.70;99.90
9881;DHT22;4979;51.014;6.678;2022-10-18T05:14:02;15.70;99.90
9881;DHT22;4979;51.014;6.678;2022-10-18T05:16:28;15.80;99.90
9881;DHT22;4979;51.014;6.678;2022-10-18T05:18:54;15.80;99.90
9881;DHT22;4979;51.014;6.678;2022-10-18T05:21:19;15.80;99.90
9881;DHT22;4979;51.014;6.678;2022-10-18T05:23:45;15.80;99.90
9881;DHT22;4979;51.014;6.678;2022-10-18T05:26:10;15.80;99.90
9881;DHT22;4979;51.014;6.678;2022-10-18T05:28:36;15.70;99.90
9881;DHT22;4979;51.014;6.678;2022-10-18T05:31:06;15.70;99.90
9881;DHT22;4979;51.014;6.678;2022-10-18T05:33:32;15.80;99.90
9881;DHT22;4979;51.014;6.678;2022-10-18T05:35:58;15.90;99.90
9881;DHT22;4979;51.014;6.678;2022-10-18T05:38:24;15.80;99.90
9881;DHT22;4979;51.014;6.678;2022-10-18T05:40:49;15.70;99.90
9881;DHT22;4979;51.014;6.678;2022-10-18T05:43:15;15.70;99.90
9881;DHT22;4979;51.014;6.678;2022-10-18T05:45:50;15.90;99.90
9881;DHT22;4979;51.014;6.678;2022-10-18T05:48:16;15.80;99.90
9881;DHT22;4979;51.014;6.678;2022-10-18T05:50:42;15.80;99.90
9881;DHT22;4979;51.014;6.678;2022-10-18T05:53:08;15.90;99.90
9881;DHT22;4979;51.014;6.678;2022-10-18T05:55:34;15.90;99.90
9881;DHT22;4979;51.014;6.678;2022-10-18T05:58:00;15.80;99.90
9881;DHT22;4979;51.014;6.678;2022-10-18T06:00:26;15.90;99.90
9881;DHT22;4979;51.014;6.678;2022-10-18T06:02:51;15.80;99.90
9881;DHT22;4979;51.014;6.678;2022-10-18T06:05:17;15.90;99.90
9881;DHT22;4979;51.014;6.678;2022-10-18T06:07:42;15.80;99.90
9881;DHT22;4979;51.014;6.678;2022-10-18T06:10:08;15.90;99.90
9881;DHT22;4979;51.014;6.678;2022-10-18T06:12:34;15.90;99.90
9881;DHT22;4979;51.014;6.678;2022-10-18T06:15:00;15.80;99.90
9881;DHT22;4979;51.014;6.678;2022-10-18T06:17:25;15.90;99.90
9881;DHT22;4979;51.014;6.678;2022-10-18T06:19:51;15.80;99.90
9881;DHT22;4979;51.014;6.678;2022-10-18T06:22:16;15.90;99.90
9881;DHT22;4979;51.014;6.678;2022-10-18T06:24:42;15.90;99.90
9881;DHT22;4979;51.014;6.678;2022-10-18T06:27:07;15.80;99.90
9881;DHT22;4979;51.014;6.678;2022-10-18T06:29:37;15.80;99.90
9881;DHT22;4979;51.014;6.678;2022-10-18T06:32:04;15.80;99.90
9881;DHT22;4979;51.014;6.678;2022-10-18T06:34:30;15.80;99.90
9881;DHT22;4979;51.014;6.678;2022-10-18T06:36:56;15.90;99.90
9881;DHT22;4979;51.014;6.678;2022-10-18T06:39:22;15.90;99.90
9881;DHT22;4979;51.014;6.678;2022-10-18T06:41:47;15.80;99.90
9881;DHT22;4979;51.014;6.678;2022-10-18T06:44:13;15.80;99.90
9881;DHT22;4979;51.014;6.678;2022-10-18T06:46:40;15.90;99.90
9881;DHT22;4979;51.014;6.678;2022-10-18T06:49:06;16.00;99.90
9881;DHT22;4979;51.014;6.678;2022-10-18T06:51:31;15.80;99.90
9881;DHT22;4979;51.014;6.678;2022-10-18T06:53:57;15.90;99.90
9881;DHT22;4979;51.014;6.678;2022-10-18T06:56:23;15.90;99.90
9881;DHT22;4979;51.014;6.678;2022-10-18T06:58:48;16.00;99.90
9881;DHT22;4979;51.014;6.678;2022-10-18T07:01:15;15.90;99.90
9881;DHT22;4979;51.014;6.678;2022-10-18T07:03:42;15.80;99.90
9881;DHT22;4979;51.014;6.678;2022-10-18T07:06:09;15.90;99.90
9881;DHT22;4979;51.014;6.678;2022-10-18T07:08:36;15.90;99.90
9881;DHT22;4979;51.014;6.678;2022-10-18T07:11:02;15.90;99.90
9881;DHT22;4979;51.014;6.678;2022-10-18T07:13:28;15.90;99.90
9881;DHT22;4979;51.014;6.678;2022-10-18T07:16:11;15.90;99.90
9881;DHT22;4979;51.014;6.678;2022-10-18T07:18:39;15.90;99.90
9881;DHT22;4979;51.014;6.678;2022-10-18T07:21:06;15.90;99.90
9881;DHT22;4979;51.014;6.678;2022-10-18T07:23:37;15.80;99.90
9881;DHT22;4979;51.014;6.678;2022-10-18T07:26:14;15.80;99.90
9881;DHT22;4979;51.014;6.678;2022-10-18T07:28:40;15.80;99.90
9881;DHT22;4979;51.014;6.678;2022-10-18T07:31:07;15.80;99.90
9881;DHT22;4979;51.014;6.678;2022-10-18T07:33:34;15.80;99.90
9881;DHT22;4979;51.014;6.678;2022-10-18T07:36:01;15.90;99.90
9881;DHT22;4979;51.014;6.678;2022-10-18T07:38:27;15.80;99.90
9881;DHT22;4979;51.014;6.678;2022-10-18T07:40:57;15.90;99.90
9881;DHT22;4979;51.014;6.678;2022-10-18T07:43:24;16.00;99.90
9881;DHT22;4979;51.014;6.678;2022-10-18T07:45:57;15.80;99.90
9881;DHT22;4979;51.014;6.678;2022-10-18T07:48:23;15.90;99.90
9881;DHT22;4979;51.014;6.678;2022-10-18T07:50:49;15.90;99.90
9881;DHT22;4979;51.014;6.678;2022-10-18T07:53:14;15.90;99.90
9881;DHT22;4979;51.014;6.678;2022-10-18T07:55:40;15.90;99.90
9881;DHT22;4979;51.014;6.678;2022-10-18T07:58:06;15.90;99.90
9881;DHT22;4979;51.014;6.678;2022-10-18T08:00:31;15.90;99.90
9881;DHT22;4979;51.014;6.678;2022-10-18T08:02:58;16.00;99.90
9881;DHT22;4979;51.014;6.678;2022-10-18T08:05:25;15.90;99.90
9881;DHT22;4979;51.014;6.678;2022-10-18T08:07:52;16.00;99.90
9881;DHT22;4979;51.014;6.678;2022-10-18T08:10:18;16.10;99.90
9881;DHT22;4979;51.014;6.678;2022-10-18T08:12:44;16.10;99.90
9881;DHT22;4979;51.014;6.678;2022-10-18T08:15:09;16.10;99.90
9881;DHT22;4979;51.014;6.678;2022-10-18T08:17:35;16.20;99.90
9881;DHT22;4979;51.014;6.678;2022-10-18T08:20:01;16.20;99.90
9881;DHT22;4979;51.014;6.678;2022-10-18T08:22:26;16.30;99.90
9881;DHT22;4979;51.014;6.678;2022-10-18T08:24:52;16.20;99.90
9881;DHT22;4979;51.014;6.678;2022-10-18T08:27:17;16.20;99.90
9881;DHT22;4979;51.014;6.678;2022-10-18T08:29:43;16.30;99.90
9881;DHT22;4979;51.014;6.678;2022-10-18T08:32:08;16.30;99.90
9881;DHT22;4979;51.014;6.678;2022-10-18T08:34:34;16.30;99.90
9881;DHT22;4979;51.014;6.678;2022-10-18T08:37:00;16.30;99.90
9881;DHT22;4979;51.014;6.678;2022-10-18T08:39:26;16.30;99.90
9881;DHT22;4979;51.014;6.678;2022-10-18T08:42:10;16.30;99.90
9881;DHT22;4979;51.014;6.678;2022-10-18T08:44:44;16.20;99.90
9881;DHT22;4979;51.014;6.678;2022-10-18T08:47:20;16.20;99.90
9881;DHT22;4979;51.014;6.678;2022-10-18T08:49:50;16.30;99.90
9881;DHT22;4979;51.014;6.678;2022-10-18T08:52:24;16.40;99.90
9881;DHT22;4979;51.014;6.678;2022-10-18T08:58:01;16.20;99.90
9881;DHT22;4979;51.014;6.678;2022-10-18T09:00:30;16.40;99.90
9881;DHT22;4979;51.014;6.678;2022-10-18T09:03:02;16.30;99.90
9881;DHT22;4979;51.014;6.678;2022-10-18T09:05:54;16.40;99.90
9881;DHT22;4979;51.014;6.678;2022-10-18T09:16:00;16.60;99.90
9881;DHT22;4979;51.014;6.678;2022-10-18T09:18:45;16.50;99.90
9881;DHT22;4979;51.014;6.678;2022-10-18T09:23:58;16.60;99.90
9881;DHT22;4979;51.014;6.678;2022-10-18T09:26:47;16.70;99.90
9881;DHT22;4979;51.014;6.678;2022-10-18T09:29:38;16.60;99.90
9881;DHT22;4979;51.014;6.678;2022-10-18T09:32:20;16.70;99.90
9881;DHT22;4979;51.014;6.678;2022-10-18T09:37:17;16.70;99.90
9881;DHT22;4979;51.014;6.678;2022-10-18T09:39:44;16.80;99.90
9881;DHT22;4979;51.014;6.678;2022-10-18T09:42:18;16.90;99.90
9881;DHT22;4979;51.014;6.678;2022-10-18T09:45:02;16.80;99.90
9881;DHT22;4979;51.014;6.678;2022-10-18T09:47:38;16.70;99.90
9881;DHT22;4979;51.014;6.678;2022-10-18T09:50:26;16.80;99.90
9881;DHT22;4979;51.014;6.678;2022-10-18T09:56:00;16.90;99.90
9881;DHT22;4979;51.014;6.678;2022-10-18T09:58:50;17.00;99.90
9881;DHT22;4979;51.014;6.678;2022-10-18T10:01:24;16.90;99.90
9881;DHT22;4979;51.014;6.678;2022-10-18T10:03:51;16.80;99.90
9881;DHT22;4979;51.014;6.678;2022-10-18T10:06:29;16.90;99.90
9881;DHT22;4979;51.014;6.678;2022-10-18T10:09:07;16.90;99.90
9881;DHT22;4979;51.014;6.678;2022-10-18T10:11:43;17.00;99.90
9881;DHT22;4979;51.014;6.678;2022-10-18T10:14:24;17.00;99.90
9881;DHT22;4979;51.014;6.678;2022-10-18T10:16:57;17.10;99.90
9881;DHT22;4979;51.014;6.678;2022-10-18T10:19:32;17.10;99.90
9881;DHT22;4979;51.014;6.678;2022-10-18T10:22:11;16.90;99.90
9881;DHT22;4979;51.014;6.678;2022-10-18T10:24:50;17.00;99.90
9881;DHT22;4979;51.014;6.678;2022-10-18T10:32:17;17.10;99.90
9881;DHT22;4979;51.014;6.678;2022-10-18T10:34:43;17.00;99.90
9881;DHT22;4979;51.014;6.678;2022-10-18T10:37:30;17.20;99.90
9881;DHT22;4979;51.014;6.678;2022-10-18T10:40:12;17.20;99.90
9881;DHT22;4979;51.014;6.678;2022-10-18T10:42:58;17.40;99.90
9881;DHT22;4979;51.014;6.678;2022-10-18T10:45:27;17.50;99.90
9881;DHT22;4979;51.014;6.678;2022-10-18T10:48:05;17.70;99.90
9881;DHT22;4979;51.014;6.678;2022-10-18T10:50:55;17.70;99.90
9881;DHT22;4979;51.014;6.678;2022-10-18T10:53:33;17.70;99.90
9881;DHT22;4979;51.014;6.678;2022-10-18T10:56:00;17.70;99.90
9881;DHT22;4979;51.014;6.678;2022-10-18T10:58:32;17.70;99.90
9881;DHT22;4979;51.014;6.678;2022-10-18T11:01:19;20.00;99.90
9881;DHT22;4979;51.014;6.678;2022-10-18T11:03:47;17.60;99.90
9881;DHT22;4979;51.014;6.678;2022-10-18T11:06:47;17.90;99.90
9881;DHT22;4979;51.014;6.678;2022-10-18T11:09:23;17.90;99.90
9881;DHT22;4979;51.014;6.678;2022-10-18T11:12:09;18.00;99.90
9881;DHT22;4979;51.014;6.678;2022-10-18T11:14:40;17.90;99.90
9881;DHT22;4979;51.014;6.678;2022-10-18T11:25:21;17.70;99.90
9881;DHT22;4979;51.014;6.678;2022-10-18T11:28:04;17.90;99.90
9881;DHT22;4979;51.014;6.678;2022-10-18T11:33:47;18.10;99.90
9881;DHT22;4979;51.014;6.678;2022-10-18T11:36:37;18.30;99.90
9881;DHT22;4979;51.014;6.678;2022-10-18T11:39:24;18.30;99.90
9881;DHT22;4979;51.014;6.678;2022-10-18T11:42:02;18.10;99.90
9881;DHT22;4979;51.014;6.678;2022-10-18T11:58:44;18.20;99.90
9881;DHT22;4979;51.014;6.678;2022-10-18T12:01:26;18.20;99.90
9881;DHT22;4979;51.014;6.678;2022-10-18T12:03:58;18.10;99.90
9881;DHT22;4979;51.014;6.678;2022-10-18T12:06:33;18.00;99.90
9881;DHT22;4979;51.014;6.678;2022-10-18T12:09:29;18.00;99.90
9881;DHT22;4979;51.014;6.678;2022-10-18T12:11:59;18.10;99.90
9881;DHT22;4979;51.014;6.678;2022-10-18T12:14:29;18.10;99.90
9881;DHT22;4979;51.014;6.678;2022-10-18T12:16:58;18.10;99.90
9881;DHT22;4979;51.014;6.678;2022-10-18T12:19:26;18.20;99.90
9881;DHT22;4979;51.014;6.678;2022-10-18T12:21:55;18.30;99.90
9881;DHT22;4979;51.014;6.678;2022-10-18T12:24:24;18.40;99.90
9881;DHT22;4979;51.014;6.678;2022-10-18T12:26:59;18.50;99.90
9881;DHT22;4979;51.014;6.678;2022-10-18T12:29:46;18.40;99.90
9881;DHT22;4979;51.014;6.678;2022-10-18T12:32:18;18.20;99.90
9881;DHT22;4979;51.014;6.678;2022-10-18T12:34:49;18.00;99.90
9881;DHT22;4979;51.014;6.678;2022-10-18T12:37:25;18.00;99.90
9881;DHT22;4979;51.014;6.678;2022-10-18T12:40:10;17.90;99.90
9881;DHT22;4979;51.014;6.678;2022-10-18T12:42:46;17.90;99.90
9881;DHT22;4979;51.014;6.678;2022-10-18T12:47:38;18.00;99.90
9881;DHT22;4979;51.014;6.678;2022-10-18T12:50:19;18.10;99.90
9881;DHT22;4979;51.014;6.678;2022-10-18T12:55:38;18.30;99.90
9881;DHT22;4979;51.014;6.678;2022-10-18T13:00:50;19.00;99.90
9881;DHT22;4979;51.014;6.678;2022-10-18T13:13:49;19.40;99.90
9881;DHT22;4979;51.014;6.678;2022-10-18T13:18:56;19.50;99.90
9881;DHT22;4979;51.014;6.678;2022-10-18T13:21:34;19.60;99.90
9881;DHT22;4979;51.014;6.678;2022-10-18T13:24:27;19.70;99.90
9881;DHT22;4979;51.014;6.678;2022-10-18T13:27:05;19.60;99.90
9881;DHT22;4979;51.014;6.678;2022-10-18T13:32:05;19.90;99.90
9881;DHT22;4979;51.014;6.678;2022-10-18T13:34:33;19.90;99.90
9881;DHT22;4979;51.014;6.678;2022-10-18T13:37:05;19.40;99.90
9881;DHT22;4979;51.014;6.678;2022-10-18T13:39:43;19.10;99.90
9881;DHT22;4979;51.014;6.678;2022-10-18T13:44:41;18.90;99.90
9881;DHT22;4979;51.014;6.678;2022-10-18T14:04:16;18.10;99.90
9881;DHT22;4979;51.014;6.678;2022-10-18T14:06:49;18.10;99.90
9881;DHT22;4979;51.014;6.678;2022-10-18T14:09:24;18.00;99.90
9881;DHT22;4979;51.014;6.678;2022-10-18T14:11:52;18.00;99.90
9881;DHT22;4979;51.014;6.678;2022-10-18T14:14:32;18.00;99.90
9881;DHT22;4979;51.014;6.678;2022-10-18T14:17:30;17.90;99.90
9881;DHT22;4979;51.014;6.678;2022-10-18T14:22:47;17.70;99.90
9881;DHT22;4979;51.014;6.678;2022-10-18T14:25:25;17.70;99.90
9881;DHT22;4979;51.014;6.678;2022-10-18T14:30:58;17.70;99.90
9881;DHT22;4979;51.014;6.678;2022-10-18T14:33:31;17.80;99.90
9881;DHT22;4979;51.014;6.678;2022-10-18T14:38:28;17.90;99.90
9881;DHT22;4979;51.014;6.678;2022-10-18T14:41:10;18.00;99.90
9881;DHT22;4979;51.014;6.678;2022-10-18T14:43:37;17.90;99.90
9881;DHT22;4979;51.014;6.678;2022-10-18T14:46:17;18.00;99.90
9881;DHT22;4979;51.014;6.678;2022-10-18T14:48:53;18.00;99.90
9881;DHT22;4979;51.014;6.678;2022-10-18T14:51:19;18.10;99.90
9881;DHT22;4979;51.014;6.678;2022-10-18T14:53:46;18.00;99.90
9881;DHT22;4979;51.014;6.678;2022-10-18T14:56:30;18.00;99.90
9881;DHT22;4979;51.014;6.678;2022-10-18T14:59:00;18.10;99.90
9881;DHT22;4979;51.014;6.678;2022-10-18T15:01:29;18.00;99.90
9881;DHT22;4979;51.014;6.678;2022-10-18T15:03:56;18.00;99.90
9881;DHT22;4979;51.014;6.678;2022-10-18T15:06:23;18.00;99.90
9881;DHT22;4979;51.014;6.678;2022-10-18T15:08:53;18.00;99.90
9881;DHT22;4979;51.014;6.678;2022-10-18T15:11:20;18.00;99.90
9881;DHT22;4979;51.014;6.678;2022-10-18T15:13:49;18.00;99.90
9881;DHT22;4979;51.014;6.678;2022-10-18T15:16:18;18.00;99.90
9881;DHT22;4979;51.014;6.678;2022-10-18T15:18:59;17.90;99.90
9881;DHT22;4979;51.014;6.678;2022-10-18T15:21:24;17.90;99.90
9881;DHT22;4979;51.014;6.678;2022-10-18T15:23:50;17.90;99.90
9881;DHT22;4979;51.014;6.678;2022-10-18T15:26:29;17.80;99.90
9881;DHT22;4979;51.014;6.678;2022-10-18T15:28:56;17.80;99.90
9881;DHT22;4979;51.014;6.678;2022-10-18T15:31:28;17.70;99.90
9881;DHT22;4979;51.014;6.678;2022-10-18T15:34:15;17.70;99.90
9881;DHT22;4979;51.014;6.678;2022-10-18T15:36:42;17.60;99.90
9881;DHT22;4979;51.014;6.678;2022-10-18T15:39:15;17.60;99.90
9881;DHT22;4979;51.014;6.678;2022-10-18T15:41:54;17.60;99.90
9881;DHT22;4979;51.014;6.678;2022-10-18T15:44:30;17.50;99.90
9881;DHT22;4979;51.014;6.678;2022-10-18T15:52:27;17.20;99.90
9881;DHT22;4979;51.014;6.678;2022-10-18T15:54:55;17.10;99.90
9881;DHT22;4979;51.014;6.678;2022-10-18T15:57:22;17.00;99.90
9881;DHT22;4979;51.014;6.678;2022-10-18T15:59:51;17.00;99.90
9881;DHT22;4979;51.014;6.678;2022-10-18T16:02:18;16.90;99.90
9881;DHT22;4979;51.014;6.678;2022-10-18T16:04:44;16.80;99.90
9881;DHT22;4979;51.014;6.678;2022-10-18T16:07:11;16.80;99.90
9881;DHT22;4979;51.014;6.678;2022-10-18T16:09:37;16.70;99.90
9881;DHT22;4979;51.014;6.678;2022-10-18T16:12:02;16.70;99.90
9881;DHT22;4979;51.014;6.678;2022-10-18T16:14:29;16.60;99.90
9881;DHT22;4979;51.014;6.678;2022-10-18T16:16:58;16.60;99.90
9881;DHT22;4979;51.014;6.678;2022-10-18T16:19:24;16.50;99.90
9881;DHT22;4979;51.014;6.678;2022-10-18T16:21:50;16.40;99.90
9881;DHT22;4979;51.014;6.678;2022-10-18T16:24:16;16.40;99.90
9881;DHT22;4979;51.014;6.678;2022-10-18T16:26:42;16.40;99.90
9881;DHT22;4979;51.014;6.678;2022-10-18T16:29:20;16.30;99.90
9881;DHT22;4979;51.014;6.678;2022-10-18T16:31:49;16.20;99.90
9881;DHT22;4979;51.014;6.678;2022-10-18T16:34:16;16.20;99.90
9881;DHT22;4979;51.014;6.678;2022-10-18T16:36:42;16.10;99.90
9881;DHT22;4979;51.014;6.678;2022-10-18T16:39:14;16.00;99.90
9881;DHT22;4979;51.014;6.678;2022-10-18T16:41:40;16.00;99.90
9881;DHT22;4979;51.014;6.678;2022-10-18T16:44:05;15.90;99.90
9881;DHT22;4979;51.014;6.678;2022-10-18T16:46:32;15.80;99.90
9881;DHT22;4979;51.014;6.678;2022-10-18T16:48:58;15.80;99.90
9881;DHT22;4979;51.014;6.678;2022-10-18T16:51:25;15.80;99.90
9881;DHT22;4979;51.014;6.678;2022-10-18T16:53:51;15.70;99.90
9881;DHT22;4979;51.014;6.678;2022-10-18T16:56:24;15.60;99.90
9881;DHT22;4979;51.014;6.678;2022-10-18T16:58:51;15.50;99.90
9881;DHT22;4979;51.014;6.678;2022-10-18T17:01:19;15.50;99.90
9881;DHT22;4979;51.014;6.678;2022-10-18T17:03:46;15.50;99.90
9881;DHT22;4979;51.014;6.678;2022-10-18T17:06:23;15.40;99.90
9881;DHT22;4979;51.014;6.678;2022-10-18T17:08:50;15.40;99.90
9881;DHT22;4979;51.014;6.678;2022-10-18T17:11:20;15.30;99.90
9881;DHT22;4979;51.014;6.678;2022-10-18T17:13:46;15.20;99.90
9881;DHT22;4979;51.014;6.678;2022-10-18T17:16:30;15.20;99.90
9881;DHT22;4979;51.014;6.678;2022-10-18T17:18:58;15.10;99.90
9881;DHT22;4979;51.014;6.678;2022-10-18T17:21:25;15.10;99.90
9881;DHT22;4979;51.014;6.678;2022-10-18T17:23:51;15.00;99.90
9881;DHT22;4979;51.014;6.678;2022-10-18T17:26:22;15.10;99.90
9881;DHT22;4979;51.014;6.678;2022-10-18T17:28:56;15.00;99.90
9881;DHT22;4979;51.014;6.678;2022-10-18T17:31:22;14.90;99.90
9881;DHT22;4979;51.014;6.678;2022-10-18T17:33:48;14.90;99.90
9881;DHT22;4979;51.014;6.678;2022-10-18T17:36:14;14.90;99.90
9881;DHT22;4979;51.014;6.678;2022-10-18T17:38:40;14.80;99.90
9881;DHT22;4979;51.014;6.678;2022-10-18T17:41:08;14.80;99.90
9881;DHT22;4979;51.014;6.678;2022-10-18T17:43:36;14.70;99.90
9881;DHT22;4979;51.014;6.678;2022-10-18T17:46:02;14.60;99.90
9881;DHT22;4979;51.014;6.678;2022-10-18T17:48:28;14.60;99.90
9881;DHT22;4979;51.014;6.678;2022-10-18T17:50:54;14.60;99.90
9881;DHT22;4979;51.014;6.678;2022-10-18T17:53:20;14.60;99.90
9881;DHT22;4979;51.014;6.678;2022-10-18T17:55:49;14.50;99.90
9881;DHT22;4979;51.014;6.678;2022-10-18T17:58:15;14.50;99.90
9881;DHT22;4979;51.014;6.678;2022-10-18T18:00:40;14.50;99.90
9881;DHT22;4979;51.014;6.678;2022-10-18T18:03:06;14.40;99.90
9881;DHT22;4979;51.014;6.678;2022-10-18T18:05:32;14.40;99.90
9881;DHT22;4979;51.014;6.678;2022-10-18T18:07:59;14.30;99.90
9881;DHT22;4979;51.014;6.678;2022-10-18T18:10:24;14.30;99.90
9881;DHT22;4979;51.014;6.678;2022-10-18T18:12:50;14.30;99.90